This is the latest recevied weather packets stored in our database for station/object OE9FWV. If no packets are shown the sender has not sent any weather packets the latest 1 day(s).
| Time | Temp. | Humidity | Pressure | Rain* | Wind** | Luminosity | Snow |
|---|---|---|---|---|---|---|---|
| 1777993474 | 18.33° C | 65% | 1006.2 hPa | 0 mm | 3.58 m/s, 341° | - | - |
| 1777992868 | 18.33° C | 65% | 1006.2 hPa | 0 mm | 4.02 m/s, 6° | - | - |
| 1777992262 | 18.33° C | 66% | 1006.1 hPa | 0 mm | 3.13 m/s, 40° | - | - |
| 1777991059 | 17.22° C | 69% | 1006.1 hPa | 0 mm | 2.24 m/s, 32° | - | - |
| 1777990454 | 17.22° C | 71% | 1006.2 hPa | 0 mm | 4.92 m/s, 27° | - | - |
| 1777989851 | 17.22° C | 71% | 1006.2 hPa | 0 mm | 5.36 m/s, 16° | - | - |
| 1777988637 | 17.22° C | 70% | 1006.1 hPa | 0 mm | 3.13 m/s, 15° | - | - |
| 1777988036 | 17.78° C | 68% | 1006.3 hPa | 0 mm | 2.68 m/s, 339° | - | - |
| 1777987428 | 18.33° C | 69% | 1006.3 hPa | 0 mm | 4.02 m/s, 358° | - | - |
| 1777986819 | 18.33° C | 67% | 1006.4 hPa | 0 mm | 3.58 m/s, 359° | - | - |
| 1777986217 | 18.89° C | 65% | 1006.6 hPa | 0 mm | 2.24 m/s, 9° | - | - |
| 1777985612 | 19.44° C | 65% | 1006.5 hPa | 0 mm | 2.68 m/s, 331° | - | - |
| 1777985011 | 19.44° C | 65% | 1006.6 hPa | 0 mm | 4.47 m/s, 326° | - | - |
| 1777983808 | 18.89° C | 69% | 1006.9 hPa | 0 mm | 3.58 m/s, 333° | - | - |
| 1777983207 | 17.78° C | 69% | 1006.9 hPa | 0 mm | 1.34 m/s, 318° | - | - |
| 1777981998 | 17.22° C | 71% | 1007.2 hPa | 0 mm | 0.89 m/s, 339° | - | - |
| 1777981394 | 16.67° C | 73% | 1007.1 hPa | 0 mm | 1.34 m/s, 342° | - | - |
| 1777980185 | 16.11° C | 74% | 1007.4 hPa | 0 mm | 0.89 m/s, 343° | - | - |
| 1777979580 | 16.11° C | 74% | 1007.6 hPa | 0 mm | 1.79 m/s, 339° | - | - |
| 1777978975 | 16.67° C | 74% | 1007.6 hPa | 0 mm | 0.45 m/s, 324° | - | - |
| 1777978373 | 16.67° C | 74% | 1007.5 hPa | 0 mm | 2.68 m/s, 328° | - | - |
| 1777977769 | 16.11° C | 74% | 1007.6 hPa | 0 mm | 1.34 m/s, 275° | - | - |
| 1777977169 | 16.11° C | 73% | 1007.7 hPa | 0 mm | 0 m/s | - | - |
| 1777975358 | 15° C | 76% | 1007.9 hPa | 0 mm | 0 m/s | - | - |
| 1777974754 | 15° C | 75% | 1007.8 hPa | 0 mm | 0.89 m/s, 161° | - | - |
* Rain latest hour (hover to see other rain measurements)
** Current wind speed in m/s (hover to see current wind gust speed)